sensor_id;sensor_type;location;lat;lon;timestamp;P1;durP1;ratioP1;P2;durP2;ratioP2
18304;SDS011;9278;52.156;21.048;2022-07-18T00:00:40;6.20;;;3.10;;
18304;SDS011;9278;52.156;21.048;2022-07-18T00:03:08;11.85;;;3.15;;
18304;SDS011;9278;52.156;21.048;2022-07-18T00:05:36;7.68;;;2.95;;
18304;SDS011;9278;52.156;21.048;2022-07-18T00:08:05;12.20;;;2.80;;
18304;SDS011;9278;52.156;21.048;2022-07-18T00:10:33;7.22;;;2.85;;
18304;SDS011;9278;52.156;21.048;2022-07-18T00:13:02;5.80;;;3.20;;
18304;SDS011;9278;52.156;21.048;2022-07-18T00:15:30;6.75;;;3.08;;
18304;SDS011;9278;52.156;21.048;2022-07-18T00:17:58;8.68;;;3.20;;
18304;SDS011;9278;52.156;21.048;2022-07-18T00:20:27;8.45;;;3.17;;
18304;SDS011;9278;52.156;21.048;2022-07-18T00:22:55;6.82;;;2.90;;
18304;SDS011;9278;52.156;21.048;2022-07-18T00:25:23;7.70;;;3.05;;
18304;SDS011;9278;52.156;21.048;2022-07-18T00:27:52;8.63;;;2.90;;
18304;SDS011;9278;52.156;21.048;2022-07-18T00:30:21;4.45;;;2.97;;
18304;SDS011;9278;52.156;21.048;2022-07-18T00:32:49;10.07;;;3.28;;
18304;SDS011;9278;52.156;21.048;2022-07-18T00:35:17;5.82;;;2.80;;
18304;SDS011;9278;52.156;21.048;2022-07-18T00:37:46;8.73;;;3.10;;
18304;SDS011;9278;52.156;21.048;2022-07-18T00:40:14;9.35;;;2.92;;
18304;SDS011;9278;52.156;21.048;2022-07-18T00:42:42;6.57;;;3.10;;
18304;SDS011;9278;52.156;21.048;2022-07-18T00:45:10;6.47;;;2.78;;
18304;SDS011;9278;52.156;21.048;2022-07-18T00:47:39;7.10;;;3.53;;
18304;SDS011;9278;52.156;21.048;2022-07-18T00:50:08;8.02;;;3.40;;
18304;SDS011;9278;52.156;21.048;2022-07-18T00:52:37;7.93;;;3.15;;
18304;SDS011;9278;52.156;21.048;2022-07-18T00:55:06;6.57;;;3.05;;
18304;SDS011;9278;52.156;21.048;2022-07-18T00:57:37;8.65;;;3.38;;
18304;SDS011;9278;52.156;21.048;2022-07-18T01:00:08;7.85;;;3.08;;
18304;SDS011;9278;52.156;21.048;2022-07-18T01:02:57;7.65;;;3.22;;
18304;SDS011;9278;52.156;21.048;2022-07-18T01:05:25;7.75;;;3.33;;
18304;SDS011;9278;52.156;21.048;2022-07-18T01:07:54;4.95;;;3.38;;
18304;SDS011;9278;52.156;21.048;2022-07-18T01:10:22;6.97;;;3.85;;
18304;SDS011;9278;52.156;21.048;2022-07-18T01:12:50;10.52;;;3.65;;
18304;SDS011;9278;52.156;21.048;2022-07-18T01:15:19;5.85;;;3.33;;
18304;SDS011;9278;52.156;21.048;2022-07-18T01:17:47;9.57;;;3.60;;
18304;SDS011;9278;52.156;21.048;2022-07-18T01:20:16;10.02;;;3.30;;
18304;SDS011;9278;52.156;21.048;2022-07-18T01:22:46;8.98;;;3.60;;
18304;SDS011;9278;52.156;21.048;2022-07-18T01:25:15;8.27;;;3.67;;
18304;SDS011;9278;52.156;21.048;2022-07-18T01:27:43;7.03;;;3.47;;
18304;SDS011;9278;52.156;21.048;2022-07-18T01:30:12;5.18;;;3.50;;
18304;SDS011;9278;52.156;21.048;2022-07-18T01:32:41;6.13;;;3.17;;
18304;SDS011;9278;52.156;21.048;2022-07-18T01:35:11;8.88;;;3.70;;
18304;SDS011;9278;52.156;21.048;2022-07-18T01:37:39;6.93;;;3.50;;
18304;SDS011;9278;52.156;21.048;2022-07-18T01:40:09;10.77;;;3.88;;
18304;SDS011;9278;52.156;21.048;2022-07-18T01:42:38;10.38;;;4.20;;
18304;SDS011;9278;52.156;21.048;2022-07-18T01:45:06;7.82;;;3.90;;
18304;SDS011;9278;52.156;21.048;2022-07-18T01:47:35;9.63;;;3.85;;
18304;SDS011;9278;52.156;21.048;2022-07-18T01:50:04;8.65;;;4.00;;
18304;SDS011;9278;52.156;21.048;2022-07-18T01:52:33;10.50;;;3.80;;
18304;SDS011;9278;52.156;21.048;2022-07-18T01:55:02;7.13;;;3.88;;
18304;SDS011;9278;52.156;21.048;2022-07-18T01:57:32;8.63;;;3.72;;
18304;SDS011;9278;52.156;21.048;2022-07-18T02:00:01;7.15;;;3.80;;
18304;SDS011;9278;52.156;21.048;2022-07-18T02:02:29;8.65;;;4.10;;
18304;SDS011;9278;52.156;21.048;2022-07-18T02:04:58;8.55;;;4.03;;
18304;SDS011;9278;52.156;21.048;2022-07-18T02:07:27;8.65;;;4.03;;
18304;SDS011;9278;52.156;21.048;2022-07-18T02:09:56;12.32;;;4.03;;
18304;SDS011;9278;52.156;21.048;2022-07-18T02:12:25;12.25;;;3.97;;
18304;SDS011;9278;52.156;21.048;2022-07-18T02:14:55;6.55;;;3.35;;
18304;SDS011;9278;52.156;21.048;2022-07-18T02:17:23;8.02;;;4.00;;
18304;SDS011;9278;52.156;21.048;2022-07-18T02:19:51;7.90;;;3.88;;
18304;SDS011;9278;52.156;21.048;2022-07-18T02:22:19;10.52;;;4.07;;
18304;SDS011;9278;52.156;21.048;2022-07-18T02:24:48;9.25;;;4.05;;
18304;SDS011;9278;52.156;21.048;2022-07-18T02:27:16;10.65;;;4.28;;
18304;SDS011;9278;52.156;21.048;2022-07-18T02:29:44;9.15;;;4.13;;
18304;SDS011;9278;52.156;21.048;2022-07-18T02:32:15;10.05;;;4.13;;
18304;SDS011;9278;52.156;21.048;2022-07-18T02:34:43;8.10;;;4.18;;
18304;SDS011;9278;52.156;21.048;2022-07-18T02:37:11;7.25;;;3.83;;
18304;SDS011;9278;52.156;21.048;2022-07-18T02:39:40;11.48;;;4.35;;
18304;SDS011;9278;52.156;21.048;2022-07-18T02:42:08;10.13;;;4.20;;
18304;SDS011;9278;52.156;21.048;2022-07-18T02:44:36;7.63;;;3.92;;
18304;SDS011;9278;52.156;21.048;2022-07-18T02:47:05;9.68;;;4.13;;
18304;SDS011;9278;52.156;21.048;2022-07-18T02:49:34;10.10;;;4.28;;
18304;SDS011;9278;52.156;21.048;2022-07-18T02:52:07;6.68;;;3.70;;
18304;SDS011;9278;52.156;21.048;2022-07-18T02:54:36;9.65;;;4.05;;
18304;SDS011;9278;52.156;21.048;2022-07-18T02:57:06;11.18;;;4.53;;
18304;SDS011;9278;52.156;21.048;2022-07-18T02:59:34;9.88;;;4.30;;
18304;SDS011;9278;52.156;21.048;2022-07-18T03:02:03;7.13;;;4.20;;
18304;SDS011;9278;52.156;21.048;2022-07-18T03:04:31;9.13;;;4.22;;
18304;SDS011;9278;52.156;21.048;2022-07-18T03:07:01;9.95;;;4.13;;
18304;SDS011;9278;52.156;21.048;2022-07-18T03:09:29;7.40;;;3.97;;
18304;SDS011;9278;52.156;21.048;2022-07-18T03:11:58;9.15;;;4.10;;
18304;SDS011;9278;52.156;21.048;2022-07-18T03:14:26;7.38;;;4.15;;
18304;SDS011;9278;52.156;21.048;2022-07-18T03:16:54;9.02;;;4.10;;
18304;SDS011;9278;52.156;21.048;2022-07-18T03:19:22;7.93;;;4.28;;
18304;SDS011;9278;52.156;21.048;2022-07-18T03:21:51;7.45;;;4.28;;
18304;SDS011;9278;52.156;21.048;2022-07-18T03:24:20;9.18;;;4.57;;
18304;SDS011;9278;52.156;21.048;2022-07-18T03:26:49;13.38;;;4.70;;
18304;SDS011;9278;52.156;21.048;2022-07-18T03:29:17;9.27;;;4.35;;
18304;SDS011;9278;52.156;21.048;2022-07-18T03:31:45;8.48;;;4.07;;
18304;SDS011;9278;52.156;21.048;2022-07-18T03:34:13;10.40;;;3.95;;
18304;SDS011;9278;52.156;21.048;2022-07-18T03:36:42;7.53;;;4.30;;
18304;SDS011;9278;52.156;21.048;2022-07-18T03:39:10;7.75;;;4.00;;
18304;SDS011;9278;52.156;21.048;2022-07-18T03:41:40;9.00;;;4.22;;
18304;SDS011;9278;52.156;21.048;2022-07-18T03:44:08;7.53;;;4.57;;
18304;SDS011;9278;52.156;21.048;2022-07-18T03:46:36;8.50;;;3.92;;
18304;SDS011;9278;52.156;21.048;2022-07-18T03:49:04;9.10;;;3.95;;
18304;SDS011;9278;52.156;21.048;2022-07-18T03:51:32;8.70;;;4.63;;
18304;SDS011;9278;52.156;21.048;2022-07-18T03:54:01;9.25;;;4.07;;
18304;SDS011;9278;52.156;21.048;2022-07-18T03:56:29;10.30;;;4.50;;
18304;SDS011;9278;52.156;21.048;2022-07-18T03:58:59;9.38;;;4.18;;
18304;SDS011;9278;52.156;21.048;2022-07-18T04:01:27;8.35;;;3.83;;
18304;SDS011;9278;52.156;21.048;2022-07-18T04:03:56;6.75;;;4.50;;
18304;SDS011;9278;52.156;21.048;2022-07-18T04:06:24;8.02;;;4.35;;
18304;SDS011;9278;52.156;21.048;2022-07-18T04:08:52;10.85;;;4.47;;
18304;SDS011;9278;52.156;21.048;2022-07-18T04:11:21;10.05;;;4.30;;
18304;SDS011;9278;52.156;21.048;2022-07-18T04:13:50;9.50;;;4.60;;
18304;SDS011;9278;52.156;21.048;2022-07-18T04:16:22;8.80;;;4.28;;
18304;SDS011;9278;52.156;21.048;2022-07-18T04:18:51;13.98;;;4.72;;
18304;SDS011;9278;52.156;21.048;2022-07-18T04:21:19;13.50;;;4.78;;
18304;SDS011;9278;52.156;21.048;2022-07-18T04:23:48;10.43;;;4.78;;
18304;SDS011;9278;52.156;21.048;2022-07-18T04:26:16;7.53;;;4.68;;
18304;SDS011;9278;52.156;21.048;2022-07-18T04:28:45;10.82;;;4.70;;
18304;SDS011;9278;52.156;21.048;2022-07-18T04:31:13;8.95;;;4.15;;
18304;SDS011;9278;52.156;21.048;2022-07-18T04:33:43;18.73;;;4.60;;
18304;SDS011;9278;52.156;21.048;2022-07-18T04:36:11;8.82;;;4.82;;
18304;SDS011;9278;52.156;21.048;2022-07-18T04:38:39;8.13;;;4.13;;
18304;SDS011;9278;52.156;21.048;2022-07-18T04:41:07;9.52;;;4.38;;
18304;SDS011;9278;52.156;21.048;2022-07-18T04:43:35;12.32;;;4.25;;
18304;SDS011;9278;52.156;21.048;2022-07-18T04:46:04;7.13;;;4.50;;
18304;SDS011;9278;52.156;21.048;2022-07-18T04:48:32;7.07;;;3.95;;
18304;SDS011;9278;52.156;21.048;2022-07-18T04:51:02;9.50;;;3.75;;
18304;SDS011;9278;52.156;21.048;2022-07-18T04:53:30;9.55;;;3.90;;
18304;SDS011;9278;52.156;21.048;2022-07-18T04:55:58;8.40;;;3.88;;
18304;SDS011;9278;52.156;21.048;2022-07-18T04:58:26;6.30;;;3.65;;
18304;SDS011;9278;52.156;21.048;2022-07-18T05:00:54;10.82;;;3.65;;
18304;SDS011;9278;52.156;21.048;2022-07-18T05:03:22;9.48;;;3.70;;
18304;SDS011;9278;52.156;21.048;2022-07-18T05:05:51;8.55;;;4.20;;
18304;SDS011;9278;52.156;21.048;2022-07-18T05:08:21;9.05;;;3.97;;
18304;SDS011;9278;52.156;21.048;2022-07-18T05:10:49;7.47;;;3.92;;
18304;SDS011;9278;52.156;21.048;2022-07-18T05:13:17;7.97;;;3.85;;
18304;SDS011;9278;52.156;21.048;2022-07-18T05:15:46;8.55;;;4.13;;
18304;SDS011;9278;52.156;21.048;2022-07-18T05:18:14;7.45;;;4.07;;
18304;SDS011;9278;52.156;21.048;2022-07-18T05:20:42;9.88;;;3.90;;
18304;SDS011;9278;52.156;21.048;2022-07-18T05:23:13;8.75;;;3.85;;
18304;SDS011;9278;52.156;21.048;2022-07-18T05:25:44;12.88;;;4.00;;
18304;SDS011;9278;52.156;21.048;2022-07-18T05:28:12;7.65;;;3.75;;
18304;SDS011;9278;52.156;21.048;2022-07-18T05:30:41;10.70;;;3.60;;
18304;SDS011;9278;52.156;21.048;2022-07-18T05:33:09;7.93;;;3.90;;
18304;SDS011;9278;52.156;21.048;2022-07-18T05:35:38;8.48;;;3.65;;
18304;SDS011;9278;52.156;21.048;2022-07-18T05:38:06;10.30;;;3.95;;
18304;SDS011;9278;52.156;21.048;2022-07-18T05:40:34;7.68;;;3.85;;
18304;SDS011;9278;52.156;21.048;2022-07-18T05:43:03;6.95;;;3.40;;
18304;SDS011;9278;52.156;21.048;2022-07-18T05:45:33;8.73;;;3.90;;
18304;SDS011;9278;52.156;21.048;2022-07-18T05:48:02;9.30;;;3.65;;
18304;SDS011;9278;52.156;21.048;2022-07-18T05:50:31;10.38;;;3.63;;
18304;SDS011;9278;52.156;21.048;2022-07-18T05:52:59;7.55;;;3.75;;
18304;SDS011;9278;52.156;21.048;2022-07-18T05:55:28;6.88;;;3.70;;
18304;SDS011;9278;52.156;21.048;2022-07-18T05:57:56;8.38;;;3.15;;
18304;SDS011;9278;52.156;21.048;2022-07-18T06:00:25;7.60;;;3.00;;
18304;SDS011;9278;52.156;21.048;2022-07-18T06:02:54;5.85;;;2.85;;
18304;SDS011;9278;52.156;21.048;2022-07-18T06:05:22;5.65;;;2.90;;
18304;SDS011;9278;52.156;21.048;2022-07-18T06:07:52;9.07;;;2.70;;
18304;SDS011;9278;52.156;21.048;2022-07-18T06:10:21;9.57;;;2.92;;
18304;SDS011;9278;52.156;21.048;2022-07-18T06:12:51;6.47;;;2.83;;
18304;SDS011;9278;52.156;21.048;2022-07-18T06:15:19;7.40;;;3.13;;
18304;SDS011;9278;52.156;21.048;2022-07-18T06:17:50;7.60;;;3.00;;
18304;SDS011;9278;52.156;21.048;2022-07-18T06:20:19;7.97;;;2.63;;
18304;SDS011;9278;52.156;21.048;2022-07-18T06:22:47;7.53;;;2.80;;
18304;SDS011;9278;52.156;21.048;2022-07-18T06:25:15;8.68;;;2.70;;
18304;SDS011;9278;52.156;21.048;2022-07-18T06:27:44;5.63;;;2.70;;
18304;SDS011;9278;52.156;21.048;2022-07-18T06:30:12;8.07;;;3.55;;
18304;SDS011;9278;52.156;21.048;2022-07-18T06:32:41;8.82;;;2.90;;
18304;SDS011;9278;52.156;21.048;2022-07-18T06:35:11;9.50;;;2.55;;
18304;SDS011;9278;52.156;21.048;2022-07-18T06:37:43;8.93;;;3.00;;
18304;SDS011;9278;52.156;21.048;2022-07-18T06:40:12;8.90;;;2.80;;
18304;SDS011;9278;52.156;21.048;2022-07-18T06:42:41;6.60;;;2.75;;
18304;SDS011;9278;52.156;21.048;2022-07-18T06:45:09;8.05;;;2.97;;
18304;SDS011;9278;52.156;21.048;2022-07-18T06:47:39;10.15;;;3.00;;
18304;SDS011;9278;52.156;21.048;2022-07-18T06:50:10;9.25;;;3.58;;
18304;SDS011;9278;52.156;21.048;2022-07-18T06:52:39;12.00;;;2.88;;
18304;SDS011;9278;52.156;21.048;2022-07-18T06:55:09;8.10;;;2.80;;
18304;SDS011;9278;52.156;21.048;2022-07-18T06:57:38;8.07;;;2.90;;
18304;SDS011;9278;52.156;21.048;2022-07-18T07:00:09;7.28;;;2.95;;
18304;SDS011;9278;52.156;21.048;2022-07-18T07:02:40;4.93;;;2.88;;
18304;SDS011;9278;52.156;21.048;2022-07-18T07:05:12;5.80;;;2.70;;
18304;SDS011;9278;52.156;21.048;2022-07-18T07:07:41;12.98;;;3.28;;
18304;SDS011;9278;52.156;21.048;2022-07-18T07:10:14;10.73;;;2.45;;
18304;SDS011;9278;52.156;21.048;2022-07-18T07:12:43;7.75;;;2.88;;
18304;SDS011;9278;52.156;21.048;2022-07-18T07:15:15;5.80;;;2.55;;
18304;SDS011;9278;52.156;21.048;2022-07-18T07:17:47;5.45;;;2.30;;
18304;SDS011;9278;52.156;21.048;2022-07-18T07:20:18;9.50;;;2.50;;
18304;SDS011;9278;52.156;21.048;2022-07-18T07:22:50;5.30;;;2.50;;
18304;SDS011;9278;52.156;21.048;2022-07-18T07:25:20;7.30;;;2.70;;
18304;SDS011;9278;52.156;21.048;2022-07-18T07:27:51;8.40;;;2.90;;
18304;SDS011;9278;52.156;21.048;2022-07-18T07:30:20;7.72;;;2.70;;
18304;SDS011;9278;52.156;21.048;2022-07-18T07:32:51;6.63;;;2.90;;
18304;SDS011;9278;52.156;21.048;2022-07-18T07:35:22;8.50;;;3.03;;
18304;SDS011;9278;52.156;21.048;2022-07-18T07:37:51;12.05;;;2.97;;
18304;SDS011;9278;52.156;21.048;2022-07-18T07:40:23;13.70;;;3.88;;
18304;SDS011;9278;52.156;21.048;2022-07-18T07:43:04;8.27;;;3.15;;
18304;SDS011;9278;52.156;21.048;2022-07-18T07:45:34;13.52;;;3.70;;
18304;SDS011;9278;52.156;21.048;2022-07-18T07:48:08;9.55;;;3.53;;
18304;SDS011;9278;52.156;21.048;2022-07-18T07:50:47;6.70;;;3.70;;
18304;SDS011;9278;52.156;21.048;2022-07-18T07:53:17;7.93;;;3.55;;
18304;SDS011;9278;52.156;21.048;2022-07-18T07:55:45;7.22;;;3.45;;
18304;SDS011;9278;52.156;21.048;2022-07-18T07:58:13;7.47;;;3.00;;
18304;SDS011;9278;52.156;21.048;2022-07-18T08:00:42;8.02;;;3.20;;
18304;SDS011;9278;52.156;21.048;2022-07-18T08:03:10;7.25;;;3.28;;
18304;SDS011;9278;52.156;21.048;2022-07-18T08:05:44;6.20;;;2.67;;
18304;SDS011;9278;52.156;21.048;2022-07-18T08:08:14;6.30;;;2.83;;
18304;SDS011;9278;52.156;21.048;2022-07-18T08:10:43;10.38;;;3.38;;
18304;SDS011;9278;52.156;21.048;2022-07-18T08:13:13;8.50;;;2.70;;
18304;SDS011;9278;52.156;21.048;2022-07-18T08:15:42;8.82;;;2.70;;
18304;SDS011;9278;52.156;21.048;2022-07-18T08:18:12;14.55;;;3.00;;
18304;SDS011;9278;52.156;21.048;2022-07-18T08:20:41;8.02;;;2.60;;
18304;SDS011;9278;52.156;21.048;2022-07-18T08:23:10;8.20;;;2.75;;
18304;SDS011;9278;52.156;21.048;2022-07-18T08:25:39;6.43;;;2.22;;
18304;SDS011;9278;52.156;21.048;2022-07-18T08:28:10;8.02;;;2.25;;
18304;SDS011;9278;52.156;21.048;2022-07-18T08:30:39;10.73;;;2.83;;
18304;SDS011;9278;52.156;21.048;2022-07-18T08:33:08;6.68;;;2.88;;
18304;SDS011;9278;52.156;21.048;2022-07-18T08:35:36;9.45;;;2.78;;
18304;SDS011;9278;52.156;21.048;2022-07-18T08:38:05;7.88;;;2.25;;
18304;SDS011;9278;52.156;21.048;2022-07-18T08:40:35;6.07;;;1.90;;
18304;SDS011;9278;52.156;21.048;2022-07-18T08:43:05;6.85;;;2.70;;
18304;SDS011;9278;52.156;21.048;2022-07-18T08:45:50;6.47;;;2.05;;
18304;SDS011;9278;52.156;21.048;2022-07-18T08:48:22;3.90;;;2.03;;
18304;SDS011;9278;52.156;21.048;2022-07-18T08:50:50;8.90;;;2.20;;
18304;SDS011;9278;52.156;21.048;2022-07-18T08:53:18;11.55;;;2.30;;
18304;SDS011;9278;52.156;21.048;2022-07-18T08:55:48;7.97;;;2.10;;
18304;SDS011;9278;52.156;21.048;2022-07-18T08:58:17;6.03;;;2.22;;
18304;SDS011;9278;52.156;21.048;2022-07-18T09:01:05;9.10;;;2.60;;
18304;SDS011;9278;52.156;21.048;2022-07-18T09:03:34;7.88;;;2.30;;
18304;SDS011;9278;52.156;21.048;2022-07-18T09:06:03;5.47;;;2.45;;
18304;SDS011;9278;52.156;21.048;2022-07-18T09:08:32;7.60;;;2.22;;
18304;SDS011;9278;52.156;21.048;2022-07-18T09:11:03;6.05;;;2.20;;
18304;SDS011;9278;52.156;21.048;2022-07-18T09:13:56;8.55;;;2.25;;
18304;SDS011;9278;52.156;21.048;2022-07-18T09:16:24;5.40;;;2.17;;
18304;SDS011;9278;52.156;21.048;2022-07-18T09:18:54;5.38;;;2.40;;
18304;SDS011;9278;52.156;21.048;2022-07-18T09:21:23;6.20;;;2.58;;
18304;SDS011;9278;52.156;21.048;2022-07-18T09:23:57;7.97;;;2.83;;
18304;SDS011;9278;52.156;21.048;2022-07-18T09:26:39;5.85;;;2.20;;
18304;SDS011;9278;52.156;21.048;2022-07-18T09:29:10;6.07;;;2.60;;
18304;SDS011;9278;52.156;21.048;2022-07-18T09:31:53;7.28;;;2.65;;
18304;SDS011;9278;52.156;21.048;2022-07-18T09:34:32;4.22;;;2.20;;
18304;SDS011;9278;52.156;21.048;2022-07-18T09:37:02;8.18;;;2.40;;
18304;SDS011;9278;52.156;21.048;2022-07-18T09:39:31;7.00;;;2.08;;
18304;SDS011;9278;52.156;21.048;2022-07-18T09:42:13;10.98;;;2.38;;
18304;SDS011;9278;52.156;21.048;2022-07-18T09:44:42;7.00;;;2.13;;
18304;SDS011;9278;52.156;21.048;2022-07-18T09:47:23;8.25;;;1.92;;
18304;SDS011;9278;52.156;21.048;2022-07-18T09:49:52;6.20;;;1.98;;
18304;SDS011;9278;52.156;21.048;2022-07-18T09:52:21;5.22;;;1.92;;
18304;SDS011;9278;52.156;21.048;2022-07-18T09:54:49;5.57;;;2.25;;
18304;SDS011;9278;52.156;21.048;2022-07-18T09:57:24;6.70;;;2.10;;
18304;SDS011;9278;52.156;21.048;2022-07-18T09:59:54;9.30;;;2.20;;
18304;SDS011;9278;52.156;21.048;2022-07-18T10:02:23;7.30;;;2.00;;
18304;SDS011;9278;52.156;21.048;2022-07-18T10:04:51;6.18;;;2.28;;
18304;SDS011;9278;52.156;21.048;2022-07-18T10:07:20;6.40;;;2.28;;
18304;SDS011;9278;52.156;21.048;2022-07-18T10:09:48;5.30;;;2.25;;
18304;SDS011;9278;52.156;21.048;2022-07-18T10:12:17;7.93;;;2.40;;
18304;SDS011;9278;52.156;21.048;2022-07-18T10:14:47;7.00;;;2.20;;
18304;SDS011;9278;52.156;21.048;2022-07-18T10:17:17;5.10;;;1.92;;
18304;SDS011;9278;52.156;21.048;2022-07-18T10:19:47;4.18;;;1.80;;
18304;SDS011;9278;52.156;21.048;2022-07-18T10:22:15;4.50;;;2.38;;
18304;SDS011;9278;52.156;21.048;2022-07-18T10:24:44;7.82;;;2.30;;
18304;SDS011;9278;52.156;21.048;2022-07-18T10:27:17;6.05;;;2.10;;
18304;SDS011;9278;52.156;21.048;2022-07-18T10:32:39;4.47;;;2.05;;
18304;SDS011;9278;52.156;21.048;2022-07-18T10:35:08;8.50;;;1.80;;
18304;SDS011;9278;52.156;21.048;2022-07-18T10:37:42;6.65;;;1.88;;
18304;SDS011;9278;52.156;21.048;2022-07-18T10:40:24;4.20;;;2.08;;
18304;SDS011;9278;52.156;21.048;2022-07-18T10:46:03;8.32;;;2.47;;
18304;SDS011;9278;52.156;21.048;2022-07-18T10:48:51;6.50;;;1.88;;
18304;SDS011;9278;52.156;21.048;2022-07-18T10:51:29;7.75;;;2.05;;
18304;SDS011;9278;52.156;21.048;2022-07-18T10:54:25;5.10;;;1.85;;
18304;SDS011;9278;52.156;21.048;2022-07-18T10:57:07;4.55;;;1.90;;
18304;SDS011;9278;52.156;21.048;2022-07-18T10:59:38;6.07;;;1.90;;
18304;SDS011;9278;52.156;21.048;2022-07-18T11:05:41;4.80;;;1.70;;
18304;SDS011;9278;52.156;21.048;2022-07-18T11:08:20;5.47;;;1.88;;
18304;SDS011;9278;52.156;21.048;2022-07-18T11:11:22;6.88;;;1.98;;
18304;SDS011;9278;52.156;21.048;2022-07-18T11:14:02;4.90;;;1.92;;
18304;SDS011;9278;52.156;21.048;2022-07-18T11:19:34;2.83;;;1.77;;
18304;SDS011;9278;52.156;21.048;2022-07-18T11:22:05;3.47;;;1.95;;
18304;SDS011;9278;52.156;21.048;2022-07-18T11:24:51;4.97;;;1.55;;
18304;SDS011;9278;52.156;21.048;2022-07-18T11:27:21;3.53;;;1.42;;
18304;SDS011;9278;52.156;21.048;2022-07-18T11:30:20;4.40;;;1.63;;
18304;SDS011;9278;52.156;21.048;2022-07-18T11:32:50;4.57;;;1.60;;
18304;SDS011;9278;52.156;21.048;2022-07-18T11:35:36;3.22;;;1.80;;
18304;SDS011;9278;52.156;21.048;2022-07-18T11:38:10;5.57;;;1.70;;
18304;SDS011;9278;52.156;21.048;2022-07-18T11:40:46;4.63;;;1.90;;
18304;SDS011;9278;52.156;21.048;2022-07-18T11:43:26;5.10;;;1.75;;
18304;SDS011;9278;52.156;21.048;2022-07-18T11:46:01;3.78;;;1.90;;
18304;SDS011;9278;52.156;21.048;2022-07-18T11:48:42;5.70;;;1.85;;
18304;SDS011;9278;52.156;21.048;2022-07-18T11:51:38;5.18;;;1.67;;
18304;SDS011;9278;52.156;21.048;2022-07-18T11:54:21;4.93;;;2.10;;
18304;SDS011;9278;52.156;21.048;2022-07-18T11:56:52;6.53;;;2.55;;
18304;SDS011;9278;52.156;21.048;2022-07-18T11:59:21;3.58;;;1.95;;
18304;SDS011;9278;52.156;21.048;2022-07-18T12:01:50;5.65;;;1.75;;
18304;SDS011;9278;52.156;21.048;2022-07-18T12:04:25;4.55;;;1.70;;
18304;SDS011;9278;52.156;21.048;2022-07-18T12:07:19;6.47;;;1.70;;
18304;SDS011;9278;52.156;21.048;2022-07-18T12:09:54;2.83;;;1.85;;
18304;SDS011;9278;52.156;21.048;2022-07-18T12:19:05;4.00;;;2.10;;
18304;SDS011;9278;52.156;21.048;2022-07-18T12:21:49;4.50;;;1.90;;
18304;SDS011;9278;52.156;21.048;2022-07-18T12:24:36;3.47;;;1.95;;
18304;SDS011;9278;52.156;21.048;2022-07-18T12:27:35;10.90;;;2.95;;
18304;SDS011;9278;52.156;21.048;2022-07-18T12:30:17;9.00;;;2.45;;
18304;SDS011;9278;52.156;21.048;2022-07-18T12:33:06;5.45;;;1.98;;
18304;SDS011;9278;52.156;21.048;2022-07-18T12:36:16;10.30;;;2.67;;
18304;SDS011;9278;52.156;21.048;2022-07-18T12:38:59;6.20;;;2.63;;
18304;SDS011;9278;52.156;21.048;2022-07-18T12:41:37;5.88;;;1.92;;
18304;SDS011;9278;52.156;21.048;2022-07-18T12:44:05;7.85;;;1.85;;
18304;SDS011;9278;52.156;21.048;2022-07-18T12:46:46;5.68;;;2.13;;
18304;SDS011;9278;52.156;21.048;2022-07-18T12:49:29;6.15;;;2.20;;
18304;SDS011;9278;52.156;21.048;2022-07-18T12:52:03;4.00;;;2.10;;
18304;SDS011;9278;52.156;21.048;2022-07-18T12:54:32;10.07;;;2.00;;
18304;SDS011;9278;52.156;21.048;2022-07-18T12:57:05;4.82;;;1.90;;
18304;SDS011;9278;52.156;21.048;2022-07-18T12:59:42;4.32;;;1.98;;
18304;SDS011;9278;52.156;21.048;2022-07-18T13:02:16;9.95;;;2.30;;
18304;SDS011;9278;52.156;21.048;2022-07-18T13:04:46;9.02;;;2.05;;
18304;SDS011;9278;52.156;21.048;2022-07-18T13:07:17;7.85;;;2.05;;
18304;SDS011;9278;52.156;21.048;2022-07-18T13:09:45;4.68;;;1.80;;
18304;SDS011;9278;52.156;21.048;2022-07-18T13:12:20;3.53;;;1.90;;
18304;SDS011;9278;52.156;21.048;2022-07-18T13:14:48;5.38;;;1.75;;
18304;SDS011;9278;52.156;21.048;2022-07-18T13:17:24;4.53;;;1.63;;
18304;SDS011;9278;52.156;21.048;2022-07-18T13:19:56;6.40;;;1.85;;
18304;SDS011;9278;52.156;21.048;2022-07-18T13:22:27;4.40;;;1.70;;
18304;SDS011;9278;52.156;21.048;2022-07-18T13:25:04;3.28;;;1.65;;
18304;SDS011;9278;52.156;21.048;2022-07-18T13:27:36;6.68;;;1.60;;
18304;SDS011;9278;52.156;21.048;2022-07-18T13:30:08;4.95;;;1.60;;
18304;SDS011;9278;52.156;21.048;2022-07-18T13:32:39;5.65;;;1.48;;
18304;SDS011;9278;52.156;21.048;2022-07-18T13:35:12;3.72;;;1.70;;
18304;SDS011;9278;52.156;21.048;2022-07-18T13:37:41;5.85;;;1.60;;
18304;SDS011;9278;52.156;21.048;2022-07-18T13:40:14;3.33;;;1.38;;
18304;SDS011;9278;52.156;21.048;2022-07-18T13:42:50;4.20;;;2.15;;
18304;SDS011;9278;52.156;21.048;2022-07-18T13:45:18;4.47;;;1.50;;
18304;SDS011;9278;52.156;21.048;2022-07-18T13:47:48;6.18;;;1.70;;
18304;SDS011;9278;52.156;21.048;2022-07-18T13:50:16;3.75;;;1.50;;
18304;SDS011;9278;52.156;21.048;2022-07-18T13:52:45;3.45;;;1.80;;
18304;SDS011;9278;52.156;21.048;2022-07-18T13:55:16;3.20;;;1.58;;
18304;SDS011;9278;52.156;21.048;2022-07-18T13:57:46;3.92;;;1.60;;
18304;SDS011;9278;52.156;21.048;2022-07-18T14:00:15;4.63;;;1.73;;
18304;SDS011;9278;52.156;21.048;2022-07-18T14:02:45;6.05;;;1.50;;
18304;SDS011;9278;52.156;21.048;2022-07-18T14:05:14;3.75;;;2.00;;
18304;SDS011;9278;52.156;21.048;2022-07-18T14:07:48;3.15;;;1.40;;
18304;SDS011;9278;52.156;21.048;2022-07-18T14:10:19;2.75;;;1.70;;
18304;SDS011;9278;52.156;21.048;2022-07-18T14:12:52;4.35;;;1.90;;
18304;SDS011;9278;52.156;21.048;2022-07-18T14:15:22;3.45;;;1.67;;
18304;SDS011;9278;52.156;21.048;2022-07-18T14:17:50;4.95;;;1.48;;
18304;SDS011;9278;52.156;21.048;2022-07-18T14:20:27;2.78;;;1.20;;
18304;SDS011;9278;52.156;21.048;2022-07-18T14:22:59;5.63;;;1.70;;
18304;SDS011;9278;52.156;21.048;2022-07-18T14:25:30;2.22;;;1.40;;
18304;SDS011;9278;52.156;21.048;2022-07-18T14:27:59;2.88;;;1.50;;
18304;SDS011;9278;52.156;21.048;2022-07-18T14:30:28;3.67;;;1.70;;
18304;SDS011;9278;52.156;21.048;2022-07-18T14:32:57;5.93;;;1.50;;
18304;SDS011;9278;52.156;21.048;2022-07-18T14:35:25;2.22;;;1.70;;
18304;SDS011;9278;52.156;21.048;2022-07-18T14:37:54;4.20;;;1.30;;
18304;SDS011;9278;52.156;21.048;2022-07-18T14:40:24;3.50;;;1.60;;
18304;SDS011;9278;52.156;21.048;2022-07-18T14:42:53;3.28;;;1.88;;
18304;SDS011;9278;52.156;21.048;2022-07-18T14:45:21;4.97;;;1.77;;
18304;SDS011;9278;52.156;21.048;2022-07-18T14:47:57;6.22;;;2.35;;
18304;SDS011;9278;52.156;21.048;2022-07-18T14:50:26;6.05;;;1.83;;
18304;SDS011;9278;52.156;21.048;2022-07-18T14:52:55;3.45;;;1.83;;
18304;SDS011;9278;52.156;21.048;2022-07-18T14:55:23;2.63;;;1.80;;
18304;SDS011;9278;52.156;21.048;2022-07-18T14:57:52;4.40;;;1.90;;
18304;SDS011;9278;52.156;21.048;2022-07-18T15:00:21;4.93;;;1.90;;
18304;SDS011;9278;52.156;21.048;2022-07-18T15:02:50;3.38;;;1.70;;
18304;SDS011;9278;52.156;21.048;2022-07-18T15:05:19;3.70;;;1.88;;
18304;SDS011;9278;52.156;21.048;2022-07-18T15:07:48;3.40;;;1.83;;
18304;SDS011;9278;52.156;21.048;2022-07-18T15:10:16;6.50;;;1.98;;
18304;SDS011;9278;52.156;21.048;2022-07-18T15:12:44;3.45;;;1.70;;
18304;SDS011;9278;52.156;21.048;2022-07-18T15:15:12;3.20;;;1.85;;
18304;SDS011;9278;52.156;21.048;2022-07-18T15:17:41;4.60;;;2.00;;
18304;SDS011;9278;52.156;21.048;2022-07-18T15:20:09;3.47;;;1.90;;
18304;SDS011;9278;52.156;21.048;2022-07-18T15:22:40;2.80;;;1.92;;
18304;SDS011;9278;52.156;21.048;2022-07-18T15:25:08;3.17;;;1.77;;
18304;SDS011;9278;52.156;21.048;2022-07-18T15:27:37;4.88;;;2.00;;